Time;durP1;ratioP1;P1;durP2;ratioP2;P2;SDS_P1;SDS_P2;PMS_P1;PMS_P2;Temp;Humidity;BMP_temperature;BMP_pressure;BME280_temperature;BME280_humidity;BME280_pressure;Samples;Min_cycle;Max_cycle;Signal;HPM_P1;HPM_P2
2023/02/23 00:00:20;;;;;;;25.17;19.17;;;;;;;8.98;100.00;96354.34;5056373;28;20235;-74
2023/02/23 00:02:49;;;;;;;22.27;17.33;;;;;;;9.03;100.00;96355.25;5056187;28;20185;-75
2023/02/23 00:05:16;;;;;;;23.47;18.07;;;;;;;9.09;100.00;96359.56;5055667;28;20198;-76
2023/02/23 00:07:43;;;;;;;21.37;18.47;;;;;;;9.11;100.00;96354.13;5056097;28;20217;-75
2023/02/23 00:10:11;;;;;;;24.23;17.77;;;;;;;9.13;100.00;96352.09;5055990;28;20205;-75
2023/02/23 00:12:37;;;;;;;21.03;17.00;;;;;;;9.14;100.00;96356.28;5055299;28;20194;-75
2023/02/23 00:15:03;;;;;;;22.57;18.50;;;;;;;9.12;100.00;96350.50;5055730;28;20251;-77
2023/02/23 00:17:30;;;;;;;23.27;18.07;;;;;;;9.11;100.00;96354.94;5055817;28;20723;-75
2023/02/23 00:19:56;;;;;;;23.23;18.13;;;;;;;9.05;100.00;96345.38;5055860;28;20194;-75
2023/02/23 00:22:24;;;;;;;25.10;18.57;;;;;;;9.06;100.00;96352.22;5055839;28;20194;-75
2023/02/23 00:24:49;;;;;;;21.00;17.37;;;;;;;9.03;100.00;96351.84;5055743;28;20194;-74
2023/02/23 00:27:19;;;;;;;24.60;18.83;;;;;;;8.95;100.00;96349.59;5054959;28;20198;-74
2023/02/23 00:29:48;;;;;;;26.80;17.97;;;;;;;8.92;100.00;96352.63;5052384;28;20200;-75
2023/02/23 00:32:18;;;;;;;24.00;18.00;;;;;;;9.05;100.00;96349.81;5055277;28;20197;-74
2023/02/23 00:34:44;;;;;;;25.70;18.50;;;;;;;9.10;100.00;96347.31;5055150;28;20253;-74
2023/02/23 00:37:11;;;;;;;23.67;17.90;;;;;;;9.05;100.00;96350.59;5055671;28;20640;-74
2023/02/23 00:39:37;;;;;;;21.77;18.80;;;;;;;9.04;100.00;96346.41;5054994;28;20258;-74
2023/02/23 00:42:02;;;;;;;24.80;19.33;;;;;;;9.04;100.00;96351.63;5055419;28;20194;-73
2023/02/23 00:44:28;;;;;;;25.67;20.10;;;;;;;8.94;100.00;96353.22;5055270;28;20686;-75
2023/02/23 00:46:53;;;;;;;25.10;18.40;;;;;;;8.88;100.00;96347.06;5055011;28;20197;-74
2023/02/23 00:49:21;;;;;;;25.83;20.53;;;;;;;8.87;100.00;96347.28;5055465;28;20566;-74
2023/02/23 00:51:46;;;;;;;30.13;20.77;;;;;;;8.76;100.00;96349.69;5054965;28;20650;-74
2023/02/23 00:54:13;;;;;;;26.57;21.60;;;;;;;8.75;100.00;96347.28;5054886;28;20201;-74
2023/02/23 00:56:38;;;;;;;27.30;23.03;;;;;;;8.71;100.00;96349.56;5054925;28;20204;-74
2023/02/23 00:59:05;;;;;;;30.30;20.90;;;;;;;8.63;100.00;96342.06;5055296;28;20194;-75
2023/02/23 01:01:31;;;;;;;27.23;20.53;;;;;;;8.63;100.00;96339.44;5055293;28;20190;-74
2023/02/23 01:03:56;;;;;;;24.90;20.30;;;;;;;8.59;100.00;96342.72;5054624;28;20276;-74
2023/02/23 01:06:21;;;;;;;28.37;20.97;;;;;;;8.47;100.00;96345.31;5054632;28;20193;-74
2023/02/23 01:08:48;;;;;;;31.00;22.43;;;;;;;8.45;100.00;96347.34;5054795;28;20236;-74
2023/02/23 01:11:17;;;;;;;28.93;21.70;;;;;;;8.45;100.00;96338.72;5054939;28;20182;-74
2023/02/23 01:13:45;;;;;;;31.23;22.17;;;;;;;8.45;100.00;96338.72;5054253;28;20197;-74
2023/02/23 01:16:17;;;;;;;27.20;23.20;;;;;;;8.42;100.00;96341.78;5054649;28;20209;-75
2023/02/23 01:18:44;;;;;;;32.90;23.80;;;;;;;8.34;100.00;96342.91;5054481;28;20600;-74
2023/02/23 01:21:18;;;;;;;30.10;21.53;;;;;;;8.31;100.00;96336.28;5054895;28;20182;-74
2023/02/23 01:23:43;;;;;;;29.37;22.80;;;;;;;8.32;100.00;96340.50;5053263;28;20209;-74
2023/02/23 01:26:23;;;;;;;28.47;22.07;;;;;;;8.30;100.00;96341.75;5054565;28;20190;-74
2023/02/23 01:28:50;;;;;;;30.30;22.70;;;;;;;8.28;100.00;96335.94;5054360;28;20205;-74
2023/02/23 01:31:16;;;;;;;29.50;21.70;;;;;;;8.28;100.00;96336.72;5034773;28;20206;-75
2023/02/23 01:33:42;;;;;;;29.90;21.83;;;;;;;8.25;100.00;96334.53;5051309;28;20268;-74
2023/02/23 01:36:07;;;;;;;28.07;21.43;;;;;;;8.25;100.00;96336.34;5053957;28;20205;-74
2023/02/23 01:38:32;;;;;;;29.57;21.03;;;;;;;8.29;100.00;96324.47;5054575;28;20198;-75
2023/02/23 01:40:58;;;;;;;29.53;21.27;;;;;;;8.24;100.00;96329.56;5054470;28;20190;-75
2023/02/23 01:43:26;;;;;;;31.10;20.67;;;;;;;8.22;100.00;96324.56;5054073;28;20186;-75
2023/02/23 01:45:59;;;;;;;28.83;21.60;;;;;;;8.19;100.00;96329.44;5053922;28;20659;-75
2023/02/23 01:48:25;;;;;;;28.83;21.43;;;;;;;8.20;100.00;96325.78;5053898;28;20209;-76
2023/02/23 01:50:59;;;;;;;32.13;22.90;;;;;;;8.19;100.00;96327.59;5053870;28;20194;-74
2023/02/23 01:53:27;;;;;;;29.37;20.87;;;;;;;8.22;100.00;96326.38;5053991;28;20323;-74
2023/02/23 01:55:57;;;;;;;30.43;20.83;;;;;;;8.22;100.00;96324.56;5052927;28;20198;-75
2023/02/23 01:58:25;;;;;;;27.83;20.63;;;;;;;8.24;100.00;96324.34;5053711;28;20220;-73
2023/02/23 02:01:01;;;;;;;30.37;21.83;;;;;;;8.28;100.00;96321.06;5053722;28;20181;-73
2023/02/23 02:03:34;;;;;;;29.53;22.50;;;;;;;8.20;100.00;96318.75;5053760;28;20264;-74
2023/02/23 02:06:00;;;;;;;29.63;21.83;;;;;;;8.19;100.00;96319.00;5053449;28;20182;-73
2023/02/23 02:08:29;;;;;;;33.03;22.23;;;;;;;8.24;100.00;96316.50;5054003;28;20216;-74
2023/02/23 02:10:56;;;;;;;28.50;23.17;;;;;;;8.17;100.00;96319.22;5052605;28;20255;-74
2023/02/23 02:13:28;;;;;;;30.27;22.23;;;;;;;8.12;100.00;96318.28;5052614;28;20198;-73
2023/02/23 02:16:04;;;;;;;33.53;22.53;;;;;;;8.22;100.00;96313.31;5053741;28;20192;-74
2023/02/23 02:18:37;;;;;;;29.67;22.27;;;;;;;8.19;100.00;96314.53;5053695;28;20198;-75
2023/02/23 02:21:43;;;;;;;27.60;21.23;;;;;;;8.13;100.00;96312.06;5053459;28;20627;-75
2023/02/23 02:24:37;;;;;;;28.00;20.80;;;;;;;8.07;100.00;96308.53;5018331;28;20204;-75
2023/02/23 02:27:21;;;;;;;29.10;21.73;;;;;;;8.10;100.00;96305.44;5052800;28;20197;-75
2023/02/23 02:30:09;;;;;;;26.70;21.87;;;;;;;8.06;100.00;96314.75;5051678;28;20259;-76
2023/02/23 02:33:12;;;;;;;30.00;22.73;;;;;;;8.02;100.00;96305.78;5053406;28;20189;-75
2023/02/23 02:35:40;;;;;;;27.00;21.50;;;;;;;7.97;100.00;96310.06;5052803;28;20706;-76
2023/02/23 02:38:28;;;;;;;28.67;21.57;;;;;;;8.07;100.00;96302.50;5062752;28;20489;-76
2023/02/23 02:41:07;;;;;;;28.77;22.90;;;;;;;7.94;100.00;96311.28;5037900;28;20190;-75
2023/02/23 02:43:36;;;;;;;30.30;23.20;;;;;;;7.89;100.00;96298.13;5052714;28;20641;-77
2023/02/23 02:46:25;;;;;;;29.10;21.20;;;;;;;7.96;100.00;96305.88;5056011;28;20194;-76
2023/02/23 02:49:05;;;;;;;27.87;21.30;;;;;;;7.91;100.00;96299.47;5036537;28;20562;-75
2023/02/23 02:51:45;;;;;;;28.43;22.70;;;;;;;7.87;100.00;96300.94;5053214;28;20190;-75
2023/02/23 02:54:32;;;;;;;25.53;21.20;;;;;;;7.89;100.00;96296.31;5052494;28;20270;-78
2023/02/23 02:57:00;;;;;;;25.40;21.23;;;;;;;7.81;100.00;96291.38;5052250;28;20198;-76
2023/02/23 04:19:53;;;;;;;17.50;13.40;;;;;;;8.13;100.00;96302.41;5055998;28;20661;-74
2023/02/23 04:22:20;;;;;;;18.83;13.60;;;;;;;8.15;100.00;96302.16;5055642;28;20268;-74
2023/02/23 04:24:45;;;;;;;16.13;13.60;;;;;;;8.12;100.00;96298.22;5054440;28;20189;-74
2023/02/23 04:27:12;;;;;;;18.70;14.27;;;;;;;8.10;100.00;96304.66;5055349;28;20224;-76
2023/02/23 04:29:38;;;;;;;19.03;14.00;;;;;;;8.17;100.00;96307.97;5053321;28;20221;-75
2023/02/23 04:32:04;;;;;;;19.00;14.37;;;;;;;8.21;100.00;96306.50;5055521;28;20193;-74
2023/02/23 04:34:29;;;;;;;21.03;14.67;;;;;;;8.06;100.00;96304.31;5055790;28;20288;-75
2023/02/23 04:36:55;;;;;;;16.97;13.67;;;;;;;8.09;100.00;96303.06;5055246;28;20267;-74
2023/02/23 04:39:20;;;;;;;20.23;14.13;;;;;;;8.27;100.00;96303.78;5055399;28;20267;-74
2023/02/23 04:41:47;;;;;;;17.10;13.57;;;;;;;8.13;100.00;96301.63;5055003;28;20281;-75
2023/02/23 04:44:13;;;;;;;16.60;13.60;;;;;;;8.18;100.00;96302.53;5055078;28;20182;-74
2023/02/23 04:46:38;;;;;;;16.20;13.77;;;;;;;8.09;100.00;96298.63;5055388;28;20193;-75
2023/02/23 04:49:03;;;;;;;14.77;13.17;;;;;;;8.19;100.00;96304.09;5054633;28;20206;-74
2023/02/23 04:51:31;;;;;;;18.80;14.67;;;;;;;8.29;100.00;96306.19;5055053;28;20642;-75
2023/02/23 04:53:56;;;;;;;19.47;14.10;;;;;;;8.21;100.00;96306.50;5055689;28;20194;-74
2023/02/23 04:56:22;;;;;;;17.10;13.47;;;;;;;8.09;100.00;96306.47;5054478;28;20281;-75
2023/02/23 04:58:47;;;;;;;20.23;14.37;;;;;;;8.22;100.00;96308.09;5054594;28;20198;-75
2023/02/23 05:01:13;;;;;;;19.27;14.43;;;;;;;8.10;100.00;96308.06;5054947;28;20623;-74
2023/02/23 05:03:38;;;;;;;16.60;13.63;;;;;;;8.11;100.00;96314.06;5055000;28;20197;-75
2023/02/23 05:06:04;;;;;;;19.70;13.50;;;;;;;8.13;100.00;96314.66;5053501;28;20216;-75
2023/02/23 05:08:29;;;;;;;21.57;14.03;;;;;;;8.13;100.00;96310.25;5054628;28;20213;-75
2023/02/23 05:10:55;;;;;;;18.03;14.27;;;;;;;8.05;100.00;96309.75;5054818;28;20206;-75
2023/02/23 05:13:20;;;;;;;19.60;14.23;;;;;;;8.12;100.00;96305.25;5054187;28;20198;-75
2023/02/23 05:15:46;;;;;;;15.17;12.93;;;;;;;8.08;100.00;96311.94;5053978;28;20280;-75
2023/02/23 05:18:11;;;;;;;14.83;13.23;;;;;;;8.12;100.00;96310.47;5054438;28;20193;-74
2023/02/23 05:20:36;;;;;;;14.60;13.00;;;;;;;8.06;100.00;96303.50;5054712;28;20194;-75
2023/02/23 05:23:02;;;;;;;16.00;13.17;;;;;;;8.05;100.00;96309.75;5054620;28;20666;-74
2023/02/23 05:25:27;;;;;;;18.37;11.83;;;;;;;8.13;100.00;96307.63;5054016;28;20198;-75
2023/02/23 05:27:52;;;;;;;18.57;13.37;;;;;;;8.10;100.00;96302.84;5047893;28;20340;-75
2023/02/23 05:30:18;;;;;;;17.77;13.53;;;;;;;8.13;100.00;96307.63;5041729;28;20252;-75
2023/02/23 05:32:44;;;;;;;15.03;13.07;;;;;;;8.11;100.00;96311.47;5054157;28;20213;-74
2023/02/23 05:35:09;;;;;;;15.30;12.13;;;;;;;8.13;100.00;96318.06;5054446;28;20633;-74
2023/02/23 05:37:35;;;;;;;14.37;12.33;;;;;;;8.12;100.00;96310.47;5054114;28;20635;-75
2023/02/23 05:40:00;;;;;;;19.10;13.50;;;;;;;8.09;100.00;96308.28;5053732;28;20228;-75
2023/02/23 05:42:26;;;;;;;17.97;12.90;;;;;;;8.08;100.00;96309.31;5054325;28;20221;-75
2023/02/23 05:44:51;;;;;;;18.43;13.30;;;;;;;8.12;100.00;96311.25;5054266;28;20194;-75
2023/02/23 05:47:16;;;;;;;19.80;14.20;;;;;;;8.11;100.00;96314.88;5054247;28;20229;-75
2023/02/23 05:49:42;;;;;;;19.47;14.57;;;;;;;8.03;100.00;96312.56;5053826;28;20543;-74
2023/02/23 05:52:08;;;;;;;15.83;13.33;;;;;;;8.01;100.00;96317.22;5053939;28;20247;-75
2023/02/23 05:54:33;;;;;;;17.27;13.43;;;;;;;8.02;100.00;96312.81;5054057;28;20189;-75
2023/02/23 05:56:58;;;;;;;17.63;13.50;;;;;;;8.01;100.00;96316.44;5053244;28;20279;-75
2023/02/23 05:59:24;;;;;;;14.97;13.37;;;;;;;7.96;100.00;96317.09;5053635;28;20221;-75
2023/02/23 06:01:49;;;;;;;17.83;13.67;;;;;;;8.02;100.00;96315.41;5053718;28;20194;-75
2023/02/23 06:04:16;;;;;;;18.17;13.00;;;;;;;7.96;100.00;96316.31;5053719;28;20248;-76
2023/02/23 06:06:41;;;;;;;18.43;13.60;;;;;;;7.98;100.00;96315.06;5053217;28;20265;-75
2023/02/23 06:09:07;;;;;;;15.83;12.57;;;;;;;8.03;100.00;96323.00;5053476;28;20304;-74
2023/02/23 06:11:32;;;;;;;14.73;12.23;;;;;;;8.04;100.00;96316.78;5053321;28;20186;-74
2023/02/23 06:13:58;;;;;;;17.13;13.00;;;;;;;7.98;100.00;96322.06;5052649;28;20651;-74
2023/02/23 06:16:24;;;;;;;17.57;12.47;;;;;;;8.01;100.00;96324.25;5052917;28;20190;-74
2023/02/23 06:18:49;;;;;;;13.77;11.77;;;;;;;7.96;100.00;96324.94;5053569;28;20662;-74
2023/02/23 06:21:14;;;;;;;15.93;12.87;;;;;;;8.02;100.00;96333.69;5052484;28;20194;-75
2023/02/23 06:23:40;;;;;;;15.03;12.27;;;;;;;8.02;100.00;96333.69;5053411;28;20196;-75
2023/02/23 06:26:07;;;;;;;15.53;12.50;;;;;;;7.96;100.00;96332.75;5053467;28;20185;-76
2023/02/23 06:28:32;;;;;;;15.27;12.13;;;;;;;8.02;100.00;96328.47;5050533;28;20214;-74
2023/02/23 06:30:57;;;;;;;16.47;12.33;;;;;;;8.02;100.00;96331.06;5052843;28;20190;-74
2023/02/23 06:33:23;;;;;;;15.00;12.10;;;;;;;8.01;100.00;96334.69;5053050;28;20610;-73
2023/02/23 06:35:48;;;;;;;14.37;12.07;;;;;;;8.04;100.00;96332.44;5052986;28;20252;-75
2023/02/23 06:38:14;;;;;;;14.87;11.40;;;;;;;8.03;100.00;96350.91;5060454;28;20202;-76
2023/02/23 06:40:40;;;;;;;17.63;12.27;;;;;;;8.00;100.00;96339.13;5061989;28;20591;-76
2023/02/23 06:43:06;;;;;;;18.60;12.57;;;;;;;8.01;100.00;96339.91;5053269;28;20194;-74
2023/02/23 06:45:31;;;;;;;14.80;11.83;;;;;;;8.04;100.00;96336.84;5053034;28;20200;-74
2023/02/23 06:48:00;;;;;;;17.53;11.63;;;;;;;8.06;100.00;96346.06;5053290;28;20535;-75
2023/02/23 06:50:26;;;;;;;13.87;12.37;;;;;;;7.99;100.00;96342.75;5053638;28;20547;-74
2023/02/23 06:52:51;;;;;;;15.53;12.00;;;;;;;8.11;100.00;96351.41;5053485;28;20229;-74
2023/02/23 06:55:17;;;;;;;14.87;12.23;;;;;;;8.17;100.00;96350.53;5051826;28;20245;-74
2023/02/23 06:57:42;;;;;;;15.83;12.57;;;;;;;8.12;100.00;96358.25;5053662;28;20193;-75
2023/02/23 07:00:10;;;;;;;15.90;12.00;;;;;;;8.11;100.00;96356.63;5052925;28;20194;-75
2023/02/23 07:02:36;;;;;;;13.10;11.70;;;;;;;8.07;100.00;96358.09;5051697;28;20229;-74
2023/02/23 07:05:03;;;;;;;16.77;12.23;;;;;;;8.27;100.00;96363.03;5052641;28;20194;-75
2023/02/23 07:07:28;;;;;;;13.07;11.60;;;;;;;8.18;100.00;96369.59;5052678;28;20550;-74
2023/02/23 07:09:53;;;;;;;15.97;12.43;;;;;;;8.15;100.00;96367.41;5052788;28;20202;-75
2023/02/23 07:12:19;;;;;;;16.57;12.80;;;;;;;8.17;100.00;96370.63;5052361;28;20190;-75
2023/02/23 07:14:45;;;;;;;13.97;12.47;;;;;;;8.19;100.00;96373.81;5052393;28;20281;-74
2023/02/23 07:17:10;;;;;;;17.67;13.40;;;;;;;8.18;100.00;96367.78;5034638;28;20698;-79
2023/02/23 07:19:36;;;;;;;13.70;12.30;;;;;;;8.20;100.00;96372.78;5051373;28;20589;-77
2023/02/23 07:22:02;;;;;;;17.20;13.13;;;;;;;8.14;100.00;96371.84;5052174;28;20198;-77
2023/02/23 07:24:27;;;;;;;16.70;12.70;;;;;;;8.12;100.00;96376.50;5032920;28;20213;-77
2023/02/23 07:26:53;;;;;;;15.07;12.40;;;;;;;8.15;100.00;96372.63;5033512;28;20241;-77
2023/02/23 07:29:18;;;;;;;15.17;11.47;;;;;;;8.08;100.00;96377.94;5047090;28;20214;-74
2023/02/23 07:31:44;;;;;;;13.03;11.37;;;;;;;8.15;100.00;96376.06;5052438;28;20596;-75
2023/02/23 07:34:10;;;;;;;14.83;12.57;;;;;;;8.21;100.00;96379.59;5051999;28;20222;-77
2023/02/23 07:36:35;;;;;;;14.23;11.87;;;;;;;8.47;100.00;96374.03;5052784;28;20186;-76
2023/02/23 07:39:03;;;;;;;16.37;12.90;;;;;;;8.47;100.00;96381.09;5053526;28;20194;-77
2023/02/23 07:41:29;;;;;;;15.43;12.37;;;;;;;8.52;100.00;96381.22;5055249;28;20193;-76
2023/02/23 07:43:54;;;;;;;13.80;12.27;;;;;;;8.66;100.00;96380.78;5056335;28;20196;-76
2023/02/23 07:46:19;;;;;;;16.63;12.07;;;;;;;8.86;100.00;96380.47;5057435;28;20197;-76
2023/02/23 07:48:45;;;;;;;14.50;11.57;;;;;;;8.98;100.00;96390.94;5056471;28;20202;-77
2023/02/23 07:51:12;;;;;;;16.20;13.63;;;;;;;9.11;100.00;96380.28;5056207;28;20693;-78
2023/02/23 07:53:39;;;;;;;15.10;12.07;;;;;;;8.85;100.00;96380.72;5056396;28;20243;-77
2023/02/23 07:56:05;;;;;;;12.87;11.53;;;;;;;9.10;100.00;96382.09;5054066;28;20631;-77
2023/02/23 07:58:30;;;;;;;13.70;11.67;;;;;;;9.04;100.00;96388.22;5056194;28;20246;-77
2023/02/23 08:00:56;;;;;;;14.13;11.00;;;;;;;9.06;100.00;96383.56;5054912;28;20636;-77
2023/02/23 08:03:21;;;;;;;13.93;12.60;;;;;;;9.17;100.00;96388.00;5055904;28;20264;-77
2023/02/23 08:05:47;;;;;;;17.10;14.40;;;;;;;9.03;100.00;96398.91;5056023;28;20194;-78
2023/02/23 08:08:12;;;;;;;18.20;16.47;;;;;;;9.17;100.00;96392.44;5055838;28;20359;-78
2023/02/23 08:10:38;;;;;;;16.43;14.93;;;;;;;8.97;100.00;96392.75;5055751;28;20210;-78
2023/02/23 08:13:04;;;;;;;13.53;12.07;;;;;;;8.99;100.00;96393.34;5054585;28;20273;-78
2023/02/23 08:15:30;;;;;;;14.30;11.10;;;;;;;9.04;100.00;96395.28;5055836;28;20189;-73
2023/02/23 08:17:56;;;;;;;12.70;10.27;;;;;;;9.18;100.00;96387.00;5055474;28;20213;-75
2023/02/23 08:20:21;;;;;;;14.93;9.37;;;;;;;9.03;100.00;96396.28;5055295;28;20190;-76
2023/02/23 08:22:51;;;;;;;11.53;9.70;;;;;;;9.11;100.00;96401.19;5055150;28;20194;-76
2023/02/23 08:25:17;;;;;;;10.57;8.83;;;;;;;9.41;100.00;96395.84;5055821;28;20189;-76
2023/02/23 08:27:42;;;;;;;10.87;8.37;;;;;;;9.35;100.00;96397.56;5053561;28;20557;-75
2023/02/23 08:30:08;;;;;;;10.60;9.40;;;;;;;9.25;100.00;96399.94;5055702;28;20202;-74
2023/02/23 08:32:34;;;;;;;13.07;9.20;;;;;;;9.39;100.00;96393.47;5055269;28;20681;-74
2023/02/23 08:35:03;;;;;;;10.80;8.80;;;;;;;9.55;100.00;96400.63;5055339;28;20722;-76
2023/02/23 08:37:29;;;;;;;14.10;9.37;;;;;;;9.44;100.00;96396.19;5055533;28;20285;-75
2023/02/23 08:39:55;;;;;;;10.63;8.17;;;;;;;9.60;100.00;96397.31;5055534;28;20202;-75
2023/02/23 08:42:20;;;;;;;8.70;7.80;;;;;;;9.59;100.00;96400.94;5053875;28;20194;-75
2023/02/23 08:44:47;;;;;;;11.53;8.63;;;;;;;9.68;100.00;96394.34;5055328;28;20237;-73
2023/02/23 08:47:15;;;;;;;10.93;8.37;;;;;;;9.70;100.00;96396.72;5055672;28;20192;-77
2023/02/23 08:49:40;;;;;;;11.27;8.40;;;;;;;9.60;100.00;96403.34;5055058;28;20292;-75
2023/02/23 08:52:05;;;;;;;10.27;8.20;;;;;;;9.75;100.00;96402.84;5054181;28;20626;-75
2023/02/23 08:54:31;;;;;;;11.80;9.40;;;;;;;9.96;100.00;96399.63;5054198;28;20200;-75
2023/02/23 08:56:57;;;;;;;10.30;9.23;;;;;;;9.86;100.00;96403.88;5054896;28;20293;-75
2023/02/23 08:59:22;;;;;;;12.43;8.67;;;;;;;10.01;100.00;96402.34;5054195;28;20186;-75
2023/02/23 09:01:48;;;;;;;10.00;8.40;;;;;;;10.10;100.00;96399.34;5054737;28;20206;-75
2023/02/23 09:04:13;;;;;;;13.40;7.87;;;;;;;10.30;100.00;96403.22;5054770;28;20190;-73
2023/02/23 09:06:39;;;;;;;12.10;10.10;;;;;;;10.23;100.00;96410.41;5054638;28;20243;-75
2023/02/23 09:09:05;;;;;;;9.73;8.73;;;;;;;10.24;100.00;96404.13;5053917;28;20229;-74
2023/02/23 09:11:31;;;;;;;12.30;9.63;;;;;;;10.40;100.00;96405.22;5052974;28;20191;-75
2023/02/23 09:13:56;;;;;;;11.20;9.77;;;;;;;10.37;100.00;96409.09;5051788;28;20201;-76
2023/02/23 09:16:22;;;;;;;12.37;10.30;;;;;;;10.63;100.00;96414.78;5052661;28;20186;-75
2023/02/23 09:18:47;;;;;;;11.13;10.10;;;;;;;10.57;100.00;96406.03;5056833;28;20280;-76
2023/02/23 09:21:19;;;;;;;13.07;11.80;;;;;;;10.49;100.00;96414.28;5055203;28;20813;-76
2023/02/23 09:23:47;;;;;;;13.57;11.70;;;;;;;10.65;100.00;96413.50;5053657;28;20655;-74
2023/02/23 09:26:12;;;;;;;12.83;11.27;;;;;;;10.57;100.00;96416.53;5052175;28;20190;-76
2023/02/23 09:28:39;;;;;;;11.37;10.33;;;;;;;10.41;100.00;96410.22;5054037;28;20720;-75
2023/02/23 09:31:08;;;;;;;11.27;10.27;;;;;;;10.45;100.00;96412.38;5054346;28;20182;-75
2023/02/23 09:33:34;;;;;;;13.13;11.93;;;;;;;10.52;100.00;96419.06;5053334;28;20287;-76
2023/02/23 09:35:59;;;;;;;21.47;19.77;;;;;;;10.51;100.00;96414.03;5052503;28;20576;-74
2023/02/23 09:38:25;;;;;;;17.43;16.03;;;;;;;10.51;100.00;96411.44;5053181;28;20204;-75
2023/02/23 09:40:52;;;;;;;12.20;10.90;;;;;;;10.91;100.00;96416.56;5054304;28;20272;-75
2023/02/23 09:43:33;;;;;;;13.47;9.30;;;;;;;10.77;100.00;96414.25;5054005;28;20197;-75
2023/02/23 09:46:12;;;;;;;11.83;10.67;;;;;;;10.94;100.00;96408.22;5054257;28;20188;-75
2023/02/23 09:48:38;;;;;;;12.33;10.63;;;;;;;10.64;100.00;96417.19;5054189;28;20343;-76
2023/02/23 09:51:07;;;;;;;15.77;14.23;;;;;;;10.83;100.00;96410.69;5052590;28;20190;-75
2023/02/23 09:53:53;;;;;;;12.37;11.23;;;;;;;11.22;100.00;96408.94;5054025;28;20189;-74
2023/02/23 09:56:35;;;;;;;13.80;11.63;;;;;;;11.20;100.00;96410.25;5052147;28;20604;-76
2023/02/23 09:59:03;;;;;;;12.77;11.53;;;;;;;11.33;100.00;96406.47;5053839;28;20219;-75
2023/02/23 10:01:28;;;;;;;13.93;12.53;;;;;;;11.53;100.00;96409.41;5056698;28;20194;-73
2023/02/23 10:04:06;;;;;;;129.03;120.13;;;;;;;11.84;100.00;96405.38;5053725;28;20865;-73
2023/02/23 10:06:32;;;;;;;21.10;19.43;;;;;;;11.62;100.00;96411.38;5053527;28;20190;-73
2023/02/23 10:09:22;;;;;;;17.40;15.93;;;;;;;11.98;100.00;96409.25;5053939;28;20662;-74
2023/02/23 10:12:06;;;;;;;15.53;13.53;;;;;;;12.12;100.00;96413.06;5051926;28;20551;-76
2023/02/23 10:14:55;;;;;;;14.60;13.30;;;;;;;12.00;100.00;96410.56;5051639;28;20639;-78
2023/02/23 10:17:29;;;;;;;14.57;13.10;;;;;;;12.14;100.00;96411.00;5053140;28;20175;-76
2023/02/23 10:20:17;;;;;;;11.53;9.57;;;;;;;12.15;100.00;96409.94;5053514;28;20181;-75
2023/02/23 10:22:45;;;;;;;10.97;9.80;;;;;;;12.19;100.00;96413.69;5047249;28;20200;-76
2023/02/23 10:25:15;;;;;;;10.07;9.13;;;;;;;12.54;100.00;96409.88;5050904;28;20191;-82
2023/02/23 10:27:45;;;;;;;8.80;7.80;;;;;;;12.31;100.00;96413.56;5025092;28;20183;-77
2023/02/23 10:30:20;;;;;;;13.30;12.03;;;;;;;12.44;100.00;96421.03;5050635;28;20235;-79
2023/02/23 10:32:51;;;;;;;13.33;12.10;;;;;;;12.39;100.00;96418.38;5039776;28;20236;-76
2023/02/23 10:35:19;;;;;;;12.07;10.93;;;;;;;12.54;100.00;96413.25;5052814;28;20217;-76
2023/02/23 10:37:50;;;;;;;12.93;11.67;;;;;;;12.77;100.00;96422.69;5053040;28;20642;-77
2023/02/23 10:40:22;;;;;;;10.43;9.53;;;;;;;13.16;100.00;96423.31;5043508;28;20212;-76
2023/02/23 10:42:48;;;;;;;12.17;11.03;;;;;;;12.96;100.00;96418.66;5052963;28;20178;-78
2023/02/23 10:45:21;;;;;;;11.77;10.67;;;;;;;12.79;100.00;96421.41;5052200;28;20202;-77
2023/02/23 10:47:51;;;;;;;15.77;13.10;;;;;;;13.22;100.00;96423.09;5052530;28;20174;-77
2023/02/23 10:50:21;;;;;;;11.17;10.27;;;;;;;13.30;100.00;96413.97;5052825;28;20190;-76
2023/02/23 10:52:49;;;;;;;14.93;13.50;;;;;;;13.24;100.00;96418.41;5052467;28;20289;-77
2023/02/23 10:55:27;;;;;;;17.37;15.80;;;;;;;13.33;98.74;96422.13;5051878;28;20209;-78
2023/02/23 10:58:04;;;;;;;26.03;24.23;;;;;;;13.05;98.73;96422.41;5052506;28;20190;-76
2023/02/23 11:00:32;;;;;;;24.13;22.20;;;;;;;13.10;95.40;96421.66;5051992;28;20198;-75
2023/02/23 11:03:00;;;;;;;23.77;22.08;;;;;;;13.04;95.33;96417.41;5052676;28;20197;-79
2023/02/23 11:05:45;;;;;;;31.50;29.20;;;;;;;13.14;96.43;96420.16;5052743;28;20243;-76
2023/02/23 11:08:21;;;;;;;15.87;14.57;;;;;;;13.32;93.78;96412.66;5057560;28;20206;-75
2023/02/23 11:11:01;;;;;;;18.97;17.37;;;;;;;13.34;91.29;96412.41;5054133;28;20510;-76
2023/02/23 11:13:33;;;;;;;21.67;19.77;;;;;;;12.82;94.42;96409.56;5032707;28;20202;-76
2023/02/23 11:16:27;;;;;;;22.90;20.83;;;;;;;13.40;92.63;96411.41;5052879;28;20186;-76
2023/02/23 11:19:01;;;;;;;20.43;18.77;;;;;;;13.57;90.23;96398.06;5051960;28;20669;-76
2023/02/23 11:21:37;;;;;;;17.20;15.77;;;;;;;13.56;87.46;96399.91;5051951;28;20228;-76
2023/02/23 11:24:25;;;;;;;18.00;15.10;;;;;;;13.83;86.75;96397.16;5052607;28;20225;-76
2023/02/23 11:26:53;;;;;;;62.57;59.07;;;;;;;13.36;82.92;96391.91;5050450;28;20194;-77
2023/02/23 11:29:24;;;;;;;64.37;60.70;;;;;;;13.14;84.39;96391.22;5051489;28;20256;-76
2023/02/23 11:31:53;;;;;;;93.63;88.63;;;;;;;13.25;85.78;96396.31;5052666;28;20197;-76
2023/02/23 11:34:28;;;;;;;75.10;70.63;;;;;;;13.40;87.40;96390.34;5050471;28;20752;-76
2023/02/23 11:37:05;;;;;;;62.53;59.07;;;;;;;13.74;84.21;96386.31;5040357;28;20201;-76
2023/02/23 11:39:30;;;;;;;61.37;57.63;;;;;;;13.70;83.49;96389.72;5052340;28;20186;-76
2023/02/23 11:42:13;;;;;;;49.37;46.47;;;;;;;13.32;86.12;96383.69;5051738;28;20556;-75
2023/02/23 11:44:39;;;;;;;68.47;64.40;;;;;;;13.54;85.50;96377.53;5054280;28;20191;-75
2023/02/23 11:47:05;;;;;;;58.67;54.80;;;;;;;13.64;86.54;96381.00;5052450;28;20205;-76
2023/02/23 11:49:35;;;;;;;55.43;52.23;;;;;;;13.68;85.48;96366.28;5052326;28;20209;-76
2023/02/23 11:52:01;;;;;;;27.43;25.47;;;;;;;12.86;87.59;96372.03;5052321;28;20239;-77
2023/02/23 11:54:32;;;;;;;14.83;11.10;;;;;;;12.10;98.72;96367.84;5052368;28;20264;-76
2023/02/23 11:57:01;;;;;;;19.70;18.00;;;;;;;12.41;96.38;96371.59;5053800;28;20198;-77
2023/02/23 11:59:31;;;;;;;10.50;8.03;;;;;;;12.31;97.83;96367.06;5052726;28;20197;-77
2023/02/23 12:02:21;;;;;;;16.20;13.60;;;;;;;12.31;97.85;96361.00;5051961;28;20186;-76
2023/02/23 12:04:50;;;;;;;21.20;15.30;;;;;;;12.21;99.05;96363.50;5049228;28;20265;-77
2023/02/23 12:07:23;;;;;;;16.93;15.47;;;;;;;12.19;98.23;96365.59;5058907;28;20192;-77
2023/02/23 12:09:59;;;;;;;14.50;13.27;;;;;;;12.39;96.69;96357.91;5053987;28;20205;-76
2023/02/23 12:12:28;;;;;;;16.63;14.90;;;;;;;12.37;94.71;96366.03;5037562;28;20277;-76
2023/02/23 12:15:12;;;;;;;16.90;15.50;;;;;;;12.48;95.23;96362.47;5050039;28;20639;-78
2023/02/23 12:17:42;;;;;;;17.60;16.20;;;;;;;12.53;94.72;96359.13;5051529;28;20186;-77
2023/02/23 12:20:23;;;;;;;15.07;13.40;;;;;;;12.52;95.92;96352.25;5051555;28;20631;-77
2023/02/23 12:22:58;;;;;;;15.10;13.90;;;;;;;12.53;95.66;96350.44;5051485;28;20185;-76
2023/02/23 12:25:34;;;;;;;16.90;15.60;;;;;;;12.55;94.03;96354.38;5049896;28;20201;-76
2023/02/23 12:28:17;;;;;;;25.37;23.17;;;;;;;12.14;96.40;96350.59;5054652;28;20519;-76
2023/02/23 12:30:50;;;;;;;22.33;20.10;;;;;;;12.12;96.10;96343.97;5053979;28;20182;-77
2023/02/23 12:33:22;;;;;;;17.23;9.13;;;;;;;11.95;97.70;96344.06;5054871;28;20667;-74
2023/02/23 12:35:50;;;;;;;12.30;9.53;;;;;;;11.80;98.69;96344.69;5054045;28;20232;-74
2023/02/23 12:38:19;;;;;;;36.40;34.03;;;;;;;11.72;99.05;96349.50;5054500;28;20568;-76
2023/02/23 12:40:44;;;;;;;28.27;25.63;;;;;;;11.59;100.00;96350.69;5055037;28;20190;-75
2023/02/23 12:43:25;;;;;;;34.57;32.37;;;;;;;11.77;98.34;96345.16;5054509;28;20209;-75
2023/02/23 12:45:55;;;;;;;28.57;26.47;;;;;;;11.62;99.00;96340.50;5054695;28;20189;-75